createdAt,value
2019-03-18T00:01:34.158Z,94529.35
2019-03-18T00:04:07.056Z,94533.48
2019-03-18T00:06:40.067Z,94535.33
2019-03-18T00:09:13.103Z,94524.45
2019-03-18T00:11:45.881Z,94532.12
2019-03-18T00:14:19.369Z,94533.73
2019-03-18T00:16:52.409Z,94531.64
2019-03-18T00:19:25.557Z,94540.34
2019-03-18T00:21:58.600Z,94526.64
2019-03-18T00:24:31.410Z,94536.55
2019-03-18T00:27:04.670Z,94529.47
2019-03-18T00:29:38.018Z,94531.75
2019-03-18T00:32:10.799Z,94536.66
2019-03-18T00:34:43.796Z,94529.59
2019-03-18T00:37:16.837Z,94530.98
2019-03-18T00:39:50.417Z,94530.98
2019-03-18T00:42:23.945Z,94531.59
2019-03-18T00:44:56.821Z,94530.12
2019-03-18T00:47:29.860Z,94529.70
2019-03-18T00:50:03.036Z,94527.31
2019-03-18T00:52:35.963Z,94522.84
2019-03-18T00:55:09.570Z,94517.72
2019-03-18T00:57:42.689Z,94517.08
2019-03-18T01:00:15.846Z,94514.08
2019-03-18T01:02:49.990Z,94511.70
2019-03-18T01:05:22.999Z,94509.57
2019-03-18T01:07:56.156Z,94515.17
2019-03-18T01:10:28.870Z,94511.66
2019-03-18T01:13:01.804Z,94509.25
2019-03-18T01:15:34.885Z,94518.02
2019-03-18T01:18:07.834Z,94515.17
2019-03-18T01:20:41.314Z,94513.89
2019-03-18T01:23:14.133Z,94515.67
2019-03-18T01:25:47.196Z,94511.22
2019-03-18T01:28:20.093Z,94512.29
2019-03-18T01:30:53.701Z,94515.39
2019-03-18T01:33:26.475Z,94509.80
2019-03-18T01:35:59.258Z,94515.06
2019-03-18T01:38:32.181Z,94505.38
2019-03-18T01:41:05.253Z,94504.63
2019-03-18T01:43:38.073Z,94508.98
2019-03-18T01:46:10.819Z,94505.84
2019-03-18T01:48:43.621Z,94504.90
2019-03-18T01:51:16.375Z,94505.72
2019-03-18T01:53:49.185Z,94508.11
2019-03-18T01:56:21.938Z,94506.81
2019-03-18T01:59:14.131Z,94499.21
2019-03-18T02:01:49.475Z,94505.72
2019-03-18T02:04:22.294Z,94506.70
2019-03-18T02:06:55.236Z,94508.88
2019-03-18T02:09:28.242Z,94507.18
2019-03-18T02:12:01.014Z,94504.23
2019-03-18T02:14:33.765Z,94507.08
2019-03-18T02:17:06.667Z,94497.90
2019-03-18T02:19:39.510Z,94503.94
2019-03-18T02:22:13.236Z,94505.55
2019-03-18T02:24:46.021Z,94509.02
2019-03-18T02:27:19.954Z,94511.59
2019-03-18T02:29:52.804Z,94514.98
2019-03-18T02:32:25.487Z,94515.25
2019-03-18T02:34:58.286Z,94510.57
2019-03-18T02:37:31.240Z,94512.51
2019-03-18T02:40:04.278Z,94529.34
2019-03-18T02:42:37.137Z,94524.23
2019-03-18T02:45:10.844Z,94524.49
2019-03-18T02:47:44.684Z,94531.14
2019-03-18T02:50:17.554Z,94521.58
2019-03-18T02:52:50.368Z,94526.98
2019-03-18T02:55:23.112Z,94533.36
2019-03-18T02:57:57.488Z,94531.50
2019-03-18T03:00:30.410Z,94530.23
2019-03-18T03:03:04.449Z,94532.62
2019-03-18T03:05:36.999Z,94529.33
2019-03-18T03:08:09.690Z,94535.19
2019-03-18T03:10:42.616Z,94532.83
2019-03-18T03:13:15.477Z,94541.77
2019-03-18T03:15:48.286Z,94536.81
2019-03-18T03:18:21.208Z,94541.28
2019-03-18T03:20:54.020Z,94533.59
2019-03-18T03:23:26.847Z,94529.03
2019-03-18T03:25:59.488Z,94538.02
2019-03-18T03:28:32.245Z,94547.50
2019-03-18T03:31:05.115Z,94543.48
2019-03-18T03:33:38.078Z,94542.70
2019-03-18T03:36:10.611Z,94540.02
2019-03-18T03:38:43.648Z,94546.50
2019-03-18T03:41:18.297Z,94554.51
2019-03-18T03:43:51.559Z,94546.11
2019-03-18T03:46:24.248Z,94568.01
2019-03-18T03:48:57.150Z,94550.67
2019-03-18T03:51:30.257Z,94547.25
2019-03-18T03:54:03.384Z,94550.92
2019-03-18T03:56:36.269Z,94552.28
2019-03-18T03:59:09.141Z,94542.77
2019-03-18T04:02:02.505Z,94551.14
2019-03-18T04:04:35.457Z,94553.06
2019-03-18T04:07:08.445Z,94555.18
2019-03-18T04:12:36.135Z,94567.66
2019-03-18T04:15:09.372Z,94575.97
2019-03-18T04:17:42.112Z,94576.31
2019-03-18T04:20:15.167Z,94578.20
2019-03-18T04:22:48.023Z,94577.58
2019-03-18T04:25:21.181Z,94582.57
2019-03-18T04:27:54.033Z,94574.73
2019-03-18T04:30:26.699Z,94577.20
2019-03-18T04:32:59.787Z,94580.66
2019-03-18T04:35:32.727Z,94584.63
2019-03-18T04:38:05.653Z,94586.00
2019-03-18T04:40:38.545Z,94582.70
2019-03-18T04:43:11.441Z,94580.64
2019-03-18T04:45:44.390Z,94584.38
2019-03-18T04:48:18.331Z,94578.66
2019-03-18T04:50:51.317Z,94583.75
2019-03-18T04:53:24.399Z,94585.52
2019-03-18T04:55:57.416Z,94594.56
2019-03-18T04:58:30.604Z,94591.84
2019-03-18T05:01:03.453Z,94591.94
2019-03-18T05:03:36.883Z,94598.89
2019-03-18T05:06:09.932Z,94601.13
2019-03-18T05:08:42.814Z,94607.77
2019-03-18T05:11:16.540Z,94610.36
2019-03-18T05:13:50.012Z,94605.42
2019-03-18T05:16:22.844Z,94615.91
2019-03-18T05:18:55.972Z,94607.75
2019-03-18T05:21:28.876Z,94605.88
2019-03-18T05:24:01.929Z,94617.13
2019-03-18T05:26:34.740Z,94613.57
2019-03-18T05:29:07.851Z,94611.55
2019-03-18T05:31:42.843Z,94619.30
2019-03-18T05:34:16.494Z,94622.42
2019-03-18T05:36:49.594Z,94616.95
2019-03-18T05:39:22.833Z,94622.05
2019-03-18T05:41:57.158Z,94617.33
2019-03-18T05:44:30.166Z,94612.27
2019-03-18T05:47:03.643Z,94607.59
2019-03-18T05:49:36.773Z,94615.00
2019-03-18T05:52:10.063Z,94608.66
2019-03-18T05:54:43.319Z,94608.89
2019-03-18T05:57:16.754Z,94611.11
2019-03-18T05:59:51.419Z,94610.13
2019-03-18T06:02:24.503Z,94608.19
2019-03-18T06:04:57.419Z,94607.47
2019-03-18T06:07:30.367Z,94605.97
2019-03-18T06:10:03.639Z,94606.20
2019-03-18T06:12:36.975Z,94600.95
2019-03-18T06:15:10.744Z,94598.73
2019-03-18T06:17:52.411Z,94607.73
2019-03-18T06:20:20.282Z,94603.19
2019-03-18T06:22:54.363Z,94601.69
2019-03-18T06:25:27.746Z,94594.22
2019-03-18T06:28:00.834Z,94607.55
2019-03-18T06:30:33.867Z,94594.42
2019-03-18T06:33:06.934Z,94596.82
2019-03-18T06:35:40.745Z,94591.06
2019-03-18T06:38:13.755Z,94602.83
2019-03-18T06:40:46.775Z,94591.06
2019-03-18T06:43:19.776Z,94593.03
2019-03-18T06:45:52.676Z,94587.08
2019-03-18T06:48:26.955Z,94583.16
2019-03-18T06:51:00.061Z,94581.56
2019-03-18T06:53:33.115Z,94581.31
2019-03-18T06:56:06.658Z,94587.03
2019-03-18T06:58:39.670Z,94584.34
2019-03-18T07:01:12.774Z,94580.14
2019-03-18T07:03:46.215Z,94583.13
2019-03-18T07:06:19.371Z,94579.03
2019-03-18T07:08:52.715Z,94576.98
2019-03-18T07:11:26.209Z,94577.09
2019-03-18T07:13:59.474Z,94573.95
2019-03-18T07:16:33.125Z,94577.07
2019-03-18T07:19:06.384Z,94577.13
2019-03-18T07:21:39.564Z,94579.80
2019-03-18T07:24:28.379Z,94577.27
2019-03-18T07:27:27.917Z,94566.45
2019-03-18T07:30:25.712Z,94569.13
2019-03-18T07:32:58.881Z,94572.59
2019-03-18T07:35:32.373Z,94562.55
2019-03-18T07:38:05.342Z,94560.91
2019-03-18T07:40:38.698Z,94562.88
2019-03-18T07:43:11.652Z,94559.47
2019-03-18T07:45:45.077Z,94561.34
2019-03-18T07:48:30.035Z,94555.54
2019-03-18T07:50:52.883Z,94552.74
2019-03-18T07:53:25.780Z,94547.72
2019-03-18T07:55:58.771Z,94540.86
2019-03-18T07:58:31.863Z,94540.57
2019-03-18T08:01:05.419Z,94532.82
2019-03-18T08:03:38.869Z,94527.55
2019-03-18T08:06:12.043Z,94536.11
2019-03-18T08:08:44.968Z,94530.31
2019-03-18T08:11:18.158Z,94521.72
2019-03-18T08:13:51.326Z,94519.91
2019-03-18T08:16:24.514Z,94520.25
2019-03-18T08:18:57.376Z,94524.12
2019-03-18T08:21:30.409Z,94528.54
2019-03-18T08:24:03.572Z,94528.05
2019-03-18T08:26:36.818Z,94522.95
2019-03-18T08:29:09.666Z,94521.98
2019-03-18T08:31:44.551Z,94519.97
2019-03-18T08:34:17.748Z,94517.23
2019-03-18T08:36:54.080Z,94515.21
2019-03-18T08:39:27.232Z,94509.53
2019-03-18T08:42:00.441Z,94511.59
2019-03-18T08:44:33.559Z,94508.23
2019-03-18T08:47:06.814Z,94499.30
2019-03-18T08:49:39.885Z,94499.20
2019-03-18T08:52:12.854Z,94495.98
2019-03-18T08:54:46.158Z,94493.22
2019-03-18T08:57:19.049Z,94486.33
2019-03-18T08:59:52.604Z,94493.70
2019-03-18T09:02:25.564Z,94481.73
2019-03-18T09:04:58.973Z,94477.05
2019-03-18T09:07:32.161Z,94476.09
2019-03-18T09:10:05.909Z,94471.95
2019-03-18T09:12:39.314Z,94471.84
2019-03-18T09:15:13.032Z,94469.97
2019-03-18T09:17:46.172Z,94469.68
2019-03-18T09:20:19.251Z,94462.37
2019-03-18T09:23:13.155Z,94460.58
2019-03-18T09:25:48.566Z,94453.84
2019-03-18T09:28:22.330Z,94457.08
2019-03-18T09:30:55.389Z,94451.27
2019-03-18T09:33:28.637Z,94451.53
2019-03-18T09:36:01.887Z,94447.44
2019-03-18T09:38:34.950Z,94445.57
2019-03-18T09:41:09.121Z,94444.02
2019-03-18T09:43:42.224Z,94446.58
2019-03-18T09:46:15.325Z,94433.48
2019-03-18T09:48:48.261Z,94437.74
2019-03-18T09:51:21.568Z,94431.23
2019-03-18T09:53:55.080Z,94425.69
2019-03-18T09:56:28.368Z,94423.98
2019-03-18T09:59:01.449Z,94418.95
2019-03-18T10:01:34.692Z,94418.11
2019-03-18T10:04:08.021Z,94417.14
2019-03-18T10:06:41.136Z,94408.51
2019-03-18T10:09:14.060Z,94405.30
2019-03-18T10:11:47.345Z,94394.44
2019-03-18T10:14:20.990Z,94395.48
2019-03-18T10:16:54.204Z,94383.64
2019-03-18T10:19:33.387Z,94377.88
2019-03-18T10:22:02.168Z,94377.30
2019-03-18T10:24:35.343Z,94384.64
2019-03-18T10:27:08.506Z,94374.17
2019-03-18T10:29:41.720Z,94376.63
2019-03-18T10:32:14.831Z,94378.08
2019-03-18T10:34:48.004Z,94376.89
2019-03-18T10:37:21.074Z,94368.81
2019-03-18T10:39:54.208Z,94357.59
2019-03-18T10:42:27.255Z,94356.47
2019-03-18T10:45:00.448Z,94356.30
2019-03-18T10:47:34.697Z,94359.14
2019-03-18T10:50:09.535Z,94343.98
2019-03-18T10:53:02.439Z,94351.06
2019-03-18T10:56:07.112Z,94338.17
2019-03-18T10:58:52.332Z,94341.89
2019-03-18T11:01:54.116Z,94339.58
2019-03-18T11:04:27.217Z,94332.77
2019-03-18T11:07:00.259Z,94320.25
2019-03-18T11:09:33.375Z,94322.77
2019-03-18T11:12:06.731Z,94313.84
2019-03-18T11:14:40.626Z,94313.02
2019-03-18T11:17:14.109Z,94315.43
2019-03-18T11:19:57.799Z,94300.34
2019-03-18T11:22:22.246Z,94297.53
2019-03-18T11:24:56.057Z,94296.95
2019-03-18T11:27:31.836Z,94289.36
2019-03-18T11:30:08.245Z,94289.02
2019-03-18T11:32:42.395Z,94280.56
2019-03-18T11:35:18.375Z,94271.34
2019-03-18T11:37:58.123Z,94267.89
2019-03-18T11:40:35.589Z,94272.96
2019-03-18T11:43:13.424Z,94273.28
2019-03-18T11:45:47.706Z,94275.39
2019-03-18T11:48:21.634Z,94272.23
2019-03-18T11:51:00.443Z,94254.94
2019-03-18T11:53:41.534Z,94259.95
2019-03-18T11:56:18.176Z,94251.05
2019-03-18T11:58:57.620Z,94260.74
2019-03-18T12:01:32.275Z,94254.98
2019-03-18T12:04:16.831Z,94230.93
2019-03-18T12:06:50.262Z,94237.63
2019-03-18T12:09:23.251Z,94221.42
2019-03-18T12:11:56.033Z,94225.30
2019-03-18T12:14:29.061Z,94222.41
2019-03-18T12:17:02.085Z,94215.00
2019-03-18T12:19:35.380Z,94227.76
2019-03-18T12:22:09.567Z,94212.22
2019-03-18T12:24:42.639Z,94213.58
2019-03-18T12:27:15.909Z,94221.78
2019-03-18T12:29:49.046Z,94222.83
2019-03-18T12:32:22.326Z,94225.16
2019-03-18T12:34:55.552Z,94209.02
2019-03-18T12:37:28.638Z,94224.02
2019-03-18T12:40:01.845Z,94209.85
2019-03-18T12:42:34.938Z,94189.71
2019-03-18T12:45:09.829Z,94200.88
2019-03-18T12:47:43.061Z,94183.13
2019-03-18T12:50:17.489Z,94179.62
2019-03-18T12:52:50.591Z,94181.53
2019-03-18T12:55:23.629Z,94176.78
2019-03-18T12:57:56.912Z,94178.06
2019-03-18T13:00:30.216Z,94179.50
2019-03-18T13:03:03.506Z,94174.45
2019-03-18T13:05:36.618Z,94169.30
2019-03-18T13:08:09.973Z,94157.46
2019-03-18T13:10:44.493Z,94159.97
2019-03-18T13:13:18.088Z,94162.57
2019-03-18T13:15:51.100Z,94156.34
2019-03-18T13:18:25.005Z,94157.28
2019-03-18T13:21:07.408Z,94159.31
2019-03-18T13:23:33.337Z,94152.45
2019-03-18T13:26:09.549Z,94161.59
2019-03-18T13:28:42.733Z,94157.88
2019-03-18T13:31:16.199Z,94156.11
2019-03-18T13:34:15.957Z,94161.98
2019-03-18T13:36:49.598Z,94163.68
2019-03-18T13:39:22.889Z,94157.05
2019-03-18T13:41:56.185Z,94145.30
2019-03-18T13:44:30.082Z,94144.84
2019-03-18T13:47:03.276Z,94154.09
2019-03-18T13:49:36.355Z,94144.95
2019-03-18T13:52:10.061Z,94147.63
2019-03-18T13:54:43.650Z,94140.32
2019-03-18T13:57:16.735Z,94135.14
2019-03-18T13:59:50.184Z,94140.48
2019-03-18T14:02:27.635Z,94141.05
2019-03-18T14:05:00.997Z,94143.33
2019-03-18T14:07:34.510Z,94145.06
2019-03-18T14:10:09.585Z,94129.52
2019-03-18T14:12:43.040Z,94127.83
2019-03-18T14:15:17.477Z,94133.31
2019-03-18T14:17:50.587Z,94132.87
2019-03-18T14:20:23.748Z,94123.97
2019-03-18T14:22:57.006Z,94120.05
2019-03-18T14:25:30.735Z,94122.23
2019-03-18T14:28:04.009Z,94119.84
2019-03-18T14:30:38.168Z,94130.06
2019-03-18T14:33:11.684Z,94125.37
2019-03-18T14:35:44.794Z,94130.88
2019-03-18T14:38:18.278Z,94128.92
2019-03-18T14:40:52.563Z,94118.88
2019-03-18T14:43:25.616Z,94122.73
2019-03-18T14:45:58.728Z,94118.14
2019-03-18T14:48:32.147Z,94116.82
2019-03-18T14:51:05.213Z,94117.70
2019-03-18T14:53:38.385Z,94118.92
2019-03-18T14:56:18.717Z,94126.50
2019-03-18T14:58:51.819Z,94120.33
2019-03-18T15:01:25.394Z,94120.22
2019-03-18T15:04:00.334Z,94120.68
2019-03-18T15:06:33.426Z,94123.87
2019-03-18T15:09:09.155Z,94136.53
2019-03-18T15:11:43.020Z,94132.64
2019-03-18T15:14:16.118Z,94132.58
2019-03-18T15:16:49.321Z,94129.22
2019-03-18T15:19:22.564Z,94132.63
2019-03-18T15:21:58.642Z,94136.11
2019-03-18T15:24:30.366Z,94129.81
2019-03-18T15:27:03.333Z,94134.94
2019-03-18T15:29:36.543Z,94139.34
2019-03-18T15:32:09.653Z,94140.23
2019-03-18T15:34:43.235Z,94127.47
2019-03-18T15:37:16.398Z,94135.41
2019-03-18T15:39:50.328Z,94128.60
2019-03-18T15:42:23.955Z,94133.77
2019-03-18T15:45:04.245Z,94128.45
2019-03-18T15:47:37.503Z,94137.91
2019-03-18T15:50:13.705Z,94131.56
2019-03-18T15:52:47.133Z,94140.36
2019-03-18T15:55:24.148Z,94137.12
2019-03-18T15:57:56.882Z,94140.40
2019-03-18T16:00:30.284Z,94143.05
2019-03-18T16:03:03.483Z,94144.95
2019-03-18T16:05:36.548Z,94149.93
2019-03-18T16:08:10.294Z,94150.97
2019-03-18T16:10:43.844Z,94149.42
2019-03-18T16:13:17.105Z,94150.85
2019-03-18T16:15:50.486Z,94152.98
2019-03-18T16:18:23.840Z,94155.15
2019-03-18T16:20:57.572Z,94148.50
2019-03-18T16:23:30.939Z,94158.58
2019-03-18T16:26:04.324Z,94166.20
2019-03-18T16:28:37.474Z,94172.72
2019-03-18T16:31:10.937Z,94172.44
2019-03-18T16:33:44.360Z,94174.61
2019-03-18T16:36:18.002Z,94182.88
2019-03-18T16:38:51.398Z,94177.31
2019-03-18T16:41:25.629Z,94182.33
2019-03-18T16:44:00.737Z,94179.36
2019-03-18T16:46:34.472Z,94181.64
2019-03-18T16:49:08.284Z,94191.11
2019-03-18T16:51:42.011Z,94188.88
2019-03-18T16:54:18.580Z,94193.09
2019-03-18T16:56:52.240Z,94188.94
2019-03-18T16:59:25.731Z,94201.05
2019-03-18T17:02:01.860Z,94201.56
2019-03-18T17:04:36.027Z,94203.51
2019-03-18T17:07:09.332Z,94206.67
2019-03-18T17:09:42.812Z,94213.22
2019-03-18T17:12:16.982Z,94220.38
2019-03-18T17:14:50.303Z,94218.95
2019-03-18T17:17:23.737Z,94231.10
2019-03-18T17:19:57.189Z,94228.88
2019-03-18T17:22:30.672Z,94214.80
2019-03-18T17:25:04.289Z,94223.45
2019-03-18T17:27:38.184Z,94218.97
2019-03-18T17:30:16.101Z,94223.16
2019-03-18T17:32:50.060Z,94236.32
2019-03-18T17:35:23.523Z,94225.09
2019-03-18T17:37:57.361Z,94248.42
2019-03-18T17:40:31.080Z,94234.30
2019-03-18T17:43:04.742Z,94252.54
2019-03-18T17:45:38.000Z,94244.90
2019-03-18T17:48:12.579Z,94226.06
2019-03-18T17:50:45.892Z,94245.31
2019-03-18T17:53:19.076Z,94250.34
2019-03-18T17:55:52.409Z,94244.45
2019-03-18T17:58:25.567Z,94263.38
2019-03-18T18:00:58.995Z,94249.67
2019-03-18T18:03:32.144Z,94246.28
2019-03-18T18:06:06.628Z,94250.12
2019-03-18T18:08:40.128Z,94257.02
2019-03-18T18:11:13.552Z,94261.87
2019-03-18T18:13:46.984Z,94258.80
2019-03-18T18:16:20.323Z,94263.72
2019-03-18T18:18:53.826Z,94263.06
2019-03-18T18:21:27.452Z,94267.14
2019-03-18T18:24:00.744Z,94284.27
2019-03-18T18:26:33.726Z,94284.27
2019-03-18T18:29:07.284Z,94286.98
2019-03-18T18:31:40.690Z,94294.33
2019-03-18T18:34:13.820Z,94297.65
2019-03-18T18:36:47.385Z,94308.69
2019-03-18T18:39:21.207Z,94309.31
2019-03-18T18:41:54.545Z,94310.90
2019-03-18T18:44:27.949Z,94314.25
2019-03-18T18:47:09.236Z,94322.44
2019-03-18T18:49:42.814Z,94320.72
2019-03-18T18:52:16.595Z,94329.63
2019-03-18T18:54:50.346Z,94326.44
2019-03-18T18:57:23.801Z,94332.84
2019-03-18T18:59:57.382Z,94330.75
2019-03-18T19:02:31.143Z,94335.63
2019-03-18T19:05:04.841Z,94332.62
2019-03-18T19:07:38.685Z,94343.12
2019-03-18T19:10:13.453Z,94336.59
2019-03-18T19:12:46.944Z,94344.05
2019-03-18T19:15:21.636Z,94342.17
2019-03-18T19:17:55.175Z,94352.95
2019-03-18T19:20:28.453Z,94352.36
2019-03-18T19:23:02.249Z,94357.67
2019-03-18T19:25:35.410Z,94362.58
2019-03-18T19:28:09.022Z,94363.90
2019-03-18T19:30:45.596Z,94369.53
2019-03-18T19:33:19.546Z,94374.80
2019-03-18T19:35:53.504Z,94376.91
2019-03-18T19:38:27.257Z,94379.91
2019-03-18T19:41:00.634Z,94381.91
2019-03-18T19:43:34.170Z,94378.91
2019-03-18T19:46:07.701Z,94385.33
2019-03-18T19:48:41.319Z,94390.05
2019-03-18T19:51:14.652Z,94390.53
2019-03-18T19:53:49.450Z,94384.62
2019-03-18T19:56:22.937Z,94391.32
2019-03-18T19:58:58.286Z,94383.13
2019-03-18T20:01:31.181Z,94393.47
2019-03-18T20:04:03.800Z,94391.10
2019-03-18T20:06:38.370Z,94388.98
2019-03-18T20:09:11.863Z,94395.48
2019-03-18T20:11:46.608Z,94393.98
2019-03-18T20:14:19.929Z,94390.42
2019-03-18T20:16:53.363Z,94399.36
2019-03-18T20:19:26.668Z,94406.45
2019-03-18T20:22:00.369Z,94417.44
2019-03-18T20:24:33.793Z,94421.20
2019-03-18T20:27:06.977Z,94432.48
2019-03-18T20:29:40.205Z,94437.09
2019-03-18T20:32:13.379Z,94442.94
2019-03-18T20:34:46.795Z,94451.55
2019-03-18T20:37:20.262Z,94454.87
2019-03-18T20:39:55.201Z,94443.59
2019-03-18T20:42:29.057Z,94436.87
2019-03-18T20:45:02.146Z,94438.16
2019-03-18T20:47:35.372Z,94448.86
2019-03-18T20:50:11.134Z,94446.20
2019-03-18T20:52:44.254Z,94450.34
2019-03-18T20:55:18.313Z,94448.67
2019-03-18T20:57:51.620Z,94453.31
2019-03-18T21:00:24.728Z,94454.88
2019-03-18T21:02:57.759Z,94449.66
2019-03-18T21:05:31.013Z,94445.55
2019-03-18T21:08:04.125Z,94444.37
2019-03-18T21:10:37.608Z,94443.66
2019-03-18T21:13:10.733Z,94440.19
2019-03-18T21:15:43.981Z,94437.07
2019-03-18T21:18:17.845Z,94436.11
2019-03-18T21:20:50.610Z,94439.45
2019-03-18T21:23:23.869Z,94438.67
2019-03-18T21:25:57.153Z,94440.59
2019-03-18T21:28:40.815Z,94441.50
2019-03-18T21:31:05.961Z,94435.29
2019-03-18T21:33:38.926Z,94448.05
2019-03-18T21:36:12.160Z,94446.61
2019-03-18T21:38:47.794Z,94457.89
2019-03-18T21:41:20.961Z,94463.52
2019-03-18T21:43:54.032Z,94464.88
2019-03-18T21:46:27.167Z,94467.98
2019-03-18T21:49:00.335Z,94469.73
2019-03-18T21:51:33.259Z,94469.68
2019-03-18T21:54:06.519Z,94470.97
2019-03-18T21:56:39.644Z,94468.84
2019-03-18T21:59:12.737Z,94469.64
2019-03-18T22:01:46.622Z,94473.00
2019-03-18T22:04:19.665Z,94474.00
2019-03-18T22:06:52.729Z,94478.70
2019-03-18T22:09:27.167Z,94478.88
2019-03-18T22:12:00.127Z,94479.18
2019-03-18T22:14:33.237Z,94486.66
2019-03-18T22:17:06.492Z,94488.05
2019-03-18T22:19:39.658Z,94487.48
2019-03-18T22:22:12.870Z,94495.75
2019-03-18T22:24:45.910Z,94496.66
2019-03-18T22:27:18.906Z,94507.73
2019-03-18T22:29:52.047Z,94509.04
2019-03-18T22:32:25.233Z,94508.11
2019-03-18T22:34:59.475Z,94511.47
2019-03-18T22:37:32.367Z,94514.58
2019-03-18T22:40:05.887Z,94518.54
2019-03-18T22:42:39.052Z,94516.62
2019-03-18T22:45:12.592Z,94523.14
2019-03-18T22:47:45.812Z,94527.70
2019-03-18T22:50:19.509Z,94530.09
2019-03-18T22:52:52.554Z,94530.02
2019-03-18T22:55:25.627Z,94527.66
2019-03-18T22:57:58.899Z,94525.68
2019-03-18T23:00:49.236Z,94539.86
2019-03-18T23:03:23.196Z,94542.05
2019-03-18T23:05:56.589Z,94543.69
2019-03-18T23:08:30.593Z,94546.16
2019-03-18T23:11:03.651Z,94547.64
2019-03-18T23:13:36.898Z,94543.81
2019-03-18T23:16:09.803Z,94544.20
2019-03-18T23:18:42.951Z,94543.58
2019-03-18T23:21:15.985Z,94547.23
2019-03-18T23:23:49.168Z,94554.78
2019-03-18T23:26:23.610Z,94553.55
2019-03-18T23:28:56.609Z,94556.40
2019-03-18T23:31:29.529Z,94554.99
2019-03-18T23:34:02.797Z,94551.55
2019-03-18T23:36:35.752Z,94564.70
2019-03-18T23:39:11.549Z,94566.42
2019-03-18T23:41:44.588Z,94567.77
2019-03-18T23:44:17.552Z,94563.56
2019-03-18T23:46:50.718Z,94568.02
2019-03-18T23:49:23.466Z,94567.92
2019-03-18T23:51:56.470Z,94562.60
2019-03-18T23:54:29.608Z,94566.80
2019-03-18T23:57:02.376Z,94566.05
2019-03-18T23:59:35.234Z,94569.45
